Time;durP1;ratioP1;P1;durP2;ratioP2;P2;SDS_P1;SDS_P2;PMS_P1;PMS_P2;Temp;Humidity;BMP_temperature;BMP_pressure;BME280_temperature;BME280_humidity;BME280_pressure;Samples;Min_cycle;Max_cycle;Signal;HPM_P1;HPM_P2
2023/03/18 00:01:40;;;;;;;;;;;12.20;99.90;;;;;;4939156;28;20038;-75
2023/03/18 00:04:07;;;;;;;;;;;12.20;99.90;;;;;;4938406;29;19974;-76
2023/03/18 00:06:37;;;;;;;;;;;12.20;99.90;;;;;;4938135;29;20425;-76
2023/03/18 00:09:03;;;;;;;;;;;12.60;99.90;;;;;;4979274;23;19931;-73
2023/03/18 00:11:30;;;;;;;;;;;12.10;99.90;;;;;;4940048;28;19977;-74
2023/03/18 00:13:57;;;;;;;;;;;12.10;99.90;;;;;;4941090;28;20592;-73
2023/03/18 00:16:25;;;;;;;;;;;12.00;99.90;;;;;;4943298;29;21283;-73
2023/03/18 00:18:54;;;;;;;;;;;12.00;99.90;;;;;;4939545;28;19930;-73
2023/03/18 00:21:22;;;;;;;;;;;11.90;99.90;;;;;;4938668;29;19930;-73
2023/03/18 00:23:49;;;;;;;;;;;11.90;99.90;;;;;;4938551;28;19990;-72
2023/03/18 00:26:16;;;;;;;;;;;11.90;99.90;;;;;;4920875;29;20264;-73
2023/03/18 00:28:43;;;;;;;;;;;11.80;99.90;;;;;;4937925;28;19942;-74
2023/03/18 00:31:12;;;;;;;;;;;11.80;99.90;;;;;;4935689;29;20371;-73
2023/03/18 00:33:42;;;;;;;;;;;11.70;99.90;;;;;;4917467;28;19934;-72
2023/03/18 00:36:12;;;;;;;;;;;11.70;99.90;;;;;;4936927;29;19937;-72
2023/03/18 00:38:39;;;;;;;;;;;11.70;99.90;;;;;;4925625;29;19937;-73
2023/03/18 00:41:10;;;;;;;;;;;11.70;99.90;;;;;;4920876;28;19930;-73
2023/03/18 00:43:44;;;;;;;;;;;11.60;99.90;;;;;;4919562;29;20914;-73
2023/03/18 00:46:12;;;;;;;;;;;11.60;99.90;;;;;;4937027;29;19930;-75
2023/03/18 00:48:39;;;;;;;;;;;11.50;99.90;;;;;;4936519;28;20024;-74
2023/03/18 00:51:06;;;;;;;;;;;11.50;99.90;;;;;;4936905;29;19930;-76
2023/03/18 00:53:34;;;;;;;;;;;11.50;99.90;;;;;;4942048;23;19935;-76
2023/03/18 00:56:01;;;;;;;;;;;11.40;99.90;;;;;;4924739;29;20021;-76
2023/03/18 00:58:27;;;;;;;;;;;11.40;99.90;;;;;;4929903;28;19930;-76
2023/03/18 01:00:54;;;;;;;;;;;11.40;99.90;;;;;;4927987;29;19934;-76
2023/03/18 01:03:24;;;;;;;;;;;11.30;99.90;;;;;;4932549;29;19931;-75
2023/03/18 01:05:52;;;;;;;;;;;11.30;99.90;;;;;;4959744;23;20052;-73
2023/03/18 01:08:19;;;;;;;;;;;11.20;99.90;;;;;;4926852;29;19931;-74
2023/03/18 01:10:47;;;;;;;;;;;11.30;99.90;;;;;;4930144;29;19930;-74
2023/03/18 01:13:13;;;;;;;;;;;11.20;99.90;;;;;;4906579;29;19941;-74
2023/03/18 01:15:40;;;;;;;;;;;11.20;99.90;;;;;;4923623;29;19930;-73
2023/03/18 01:18:07;;;;;;;;;;;11.10;99.90;;;;;;4906514;29;19937;-73
2023/03/18 01:20:34;;;;;;;;;;;11.10;99.90;;;;;;4926379;28;19931;-73
2023/03/18 01:23:01;;;;;;;;;;;11.20;99.90;;;;;;4905813;29;20696;-73
2023/03/18 01:25:28;;;;;;;;;;;11.20;99.90;;;;;;4906864;29;20457;-74
2023/03/18 01:27:57;;;;;;;;;;;11.30;99.90;;;;;;4923788;29;19931;-73
2023/03/18 01:30:24;;;;;;;;;;;11.30;99.90;;;;;;5448587;23;19941;-74
2023/03/18 01:32:53;;;;;;;;;;;11.40;99.90;;;;;;4923168;29;19937;-73
2023/03/18 01:35:20;;;;;;;;;;;11.50;99.90;;;;;;4929174;28;21244;-73
2023/03/18 01:37:49;;;;;;;;;;;11.50;99.90;;;;;;4946922;28;19927;-74
2023/03/18 01:40:16;;;;;;;;;;;11.60;99.90;;;;;;4935489;28;19930;-74
2023/03/18 01:42:48;;;;;;;;;;;11.60;99.90;;;;;;4937248;28;19941;-75
2023/03/18 01:45:20;;;;;;;;;;;11.60;99.90;;;;;;4936295;29;20025;-74
2023/03/18 01:47:48;;;;;;;;;;;11.70;99.90;;;;;;4925969;29;19929;-74
2023/03/18 01:50:19;;;;;;;;;;;11.70;99.90;;;;;;4943882;28;20962;-74
2023/03/18 01:52:46;;;;;;;;;;;11.70;99.90;;;;;;4925429;29;19978;-74
2023/03/18 01:55:16;;;;;;;;;;;11.70;99.90;;;;;;4928394;29;19975;-73
2023/03/18 01:57:44;;;;;;;;;;;11.70;99.90;;;;;;4921649;29;21010;-73
2023/03/18 02:00:11;;;;;;;;;;;11.80;99.90;;;;;;4902666;29;19934;-73
2023/03/18 02:02:43;;;;;;;;;;;11.80;99.90;;;;;;4920875;29;19994;-73
2023/03/18 02:05:12;;;;;;;;;;;11.80;99.90;;;;;;4926667;28;19930;-73
2023/03/18 02:07:41;;;;;;;;;;;11.70;99.90;;;;;;4900974;29;19935;-73
2023/03/18 02:10:10;;;;;;;;;;;11.70;99.90;;;;;;4928841;29;20342;-73
2023/03/18 02:12:37;;;;;;;;;;;11.70;99.90;;;;;;4901545;29;20415;-73
2023/03/18 02:15:09;;;;;;;;;;;11.60;99.90;;;;;;4915668;29;19934;-73
2023/03/18 02:17:37;;;;;;;;;;;11.70;99.90;;;;;;4917239;29;20058;-74
2023/03/18 02:20:11;;;;;;;;;;;11.60;99.90;;;;;;4930154;28;20393;-73
2023/03/18 02:22:40;;;;;;;;;;;11.60;99.90;;;;;;4933341;29;20416;-74
2023/03/18 02:25:16;;;;;;;;;;;11.50;99.90;;;;;;4911678;29;19927;-73
2023/03/18 02:27:45;;;;;;;;;;;11.50;99.90;;;;;;4935637;29;19976;-73
2023/03/18 02:30:14;;;;;;;;;;;11.40;99.90;;;;;;4917381;29;19931;-73
2023/03/18 02:32:45;;;;;;;;;;;11.30;99.90;;;;;;4935726;28;20976;-73
2023/03/18 02:35:12;;;;;;;;;;;11.30;99.90;;;;;;4920808;29;19973;-73
2023/03/18 02:37:39;;;;;;;;;;;11.20;99.90;;;;;;4901873;29;19931;-74
2023/03/18 02:40:14;;;;;;;;;;;11.10;99.90;;;;;;4918335;29;20393;-74
2023/03/18 02:42:40;;;;;;;;;;;11.00;99.90;;;;;;4911076;29;19930;-73
2023/03/18 02:45:13;;;;;;;;;;;10.90;99.90;;;;;;4919565;29;20045;-73
2023/03/18 02:47:45;;;;;;;;;;;10.80;99.90;;;;;;4917732;29;19930;-73
2023/03/18 02:50:11;;;;;;;;;;;10.70;99.90;;;;;;4914328;29;19937;-73
2023/03/18 02:52:38;;;;;;;;;;;10.60;99.90;;;;;;4937556;29;19938;-73
2023/03/18 02:55:06;;;;;;;;;;;10.50;99.90;;;;;;4917872;29;20368;-73
2023/03/18 02:57:36;;;;;;;;;;;10.50;99.90;;;;;;4922449;29;19931;-73
2023/03/18 03:00:04;;;;;;;;;;;10.40;99.90;;;;;;4917402;29;20036;-72
2023/03/18 03:02:32;;;;;;;;;;;10.40;99.90;;;;;;4902272;29;20033;-74
2023/03/18 03:04:59;;;;;;;;;;;10.50;99.90;;;;;;4918914;29;20424;-73
2023/03/18 03:07:26;;;;;;;;;;;10.10;99.90;;;;;;4935490;29;20368;-74
2023/03/18 03:09:54;;;;;;;;;;;10.60;99.90;;;;;;4908530;29;19965;-74
2023/03/18 03:12:21;;;;;;;;;;;10.70;99.90;;;;;;4903013;29;19926;-75
2023/03/18 03:14:52;;;;;;;;;;;10.70;99.90;;;;;;4901240;29;20038;-75
2023/03/18 03:17:20;;;;;;;;;;;10.70;99.90;;;;;;4911280;29;20968;-75
2023/03/18 03:19:49;;;;;;;;;;;10.80;99.90;;;;;;4915675;29;19931;-75
2023/03/18 03:22:17;;;;;;;;;;;10.80;99.90;;;;;;4923590;29;20449;-75
2023/03/18 03:24:46;;;;;;;;;;;10.70;99.90;;;;;;4934764;29;20347;-75
2023/03/18 03:27:14;;;;;;;;;;;10.60;99.90;;;;;;4917731;29;19931;-74
2023/03/18 03:29:40;;;;;;;;;;;10.50;99.90;;;;;;4929282;28;19931;-74
2023/03/18 03:32:07;;;;;;;;;;;10.50;99.90;;;;;;4906935;29;19931;-75
2023/03/18 03:34:35;;;;;;;;;;;10.40;99.90;;;;;;4897831;29;20228;-75
2023/03/18 03:37:03;;;;;;;;;;;10.40;99.90;;;;;;4929206;29;19934;-74
2023/03/18 03:39:29;;;;;;;;;;;10.40;99.90;;;;;;4897366;29;19931;-75
2023/03/18 03:41:56;;;;;;;;;;;10.50;99.90;;;;;;4899533;29;20569;-74
2023/03/18 03:44:23;;;;;;;;;;;10.50;99.90;;;;;;4896454;29;20078;-74
2023/03/18 03:46:50;;;;;;;;;;;10.60;99.90;;;;;;4889057;29;19931;-74
2023/03/18 03:49:17;;;;;;;;;;;10.70;99.90;;;;;;4904544;29;20021;-75
2023/03/18 03:51:44;;;;;;;;;;;10.70;99.90;;;;;;4930565;29;20576;-74
2023/03/18 03:54:13;;;;;;;;;;;10.80;99.90;;;;;;4916076;29;19970;-74
2023/03/18 03:56:39;;;;;;;;;;;10.90;99.90;;;;;;4922585;29;19965;-75
2023/03/18 03:59:06;;;;;;;;;;;10.90;99.90;;;;;;4914755;29;19934;-75
2023/03/18 04:02:05;;;;;;;;;;;10.90;99.90;;;;;;4911914;29;19931;-72
2023/03/18 04:04:32;;;;;;;;;;;11.00;99.90;;;;;;4902109;29;20754;-73
2023/03/18 04:06:59;;;;;;;;;;;11.00;99.90;;;;;;4916556;29;19935;-73
2023/03/18 04:09:28;;;;;;;;;;;11.10;99.90;;;;;;4932314;29;20594;-73
2023/03/18 04:11:55;;;;;;;;;;;11.10;99.90;;;;;;4937005;28;20985;-73
2023/03/18 04:14:22;;;;;;;;;;;11.10;99.90;;;;;;4924395;29;20316;-73
2023/03/18 04:16:49;;;;;;;;;;;11.10;99.90;;;;;;4897862;29;19934;-74
2023/03/18 04:19:17;;;;;;;;;;;11.10;99.90;;;;;;4918017;29;20467;-73
2023/03/18 04:21:45;;;;;;;;;;;11.10;99.90;;;;;;4901312;29;19938;-75
2023/03/18 04:24:11;;;;;;;;;;;11.10;99.90;;;;;;4901571;29;19934;-73
2023/03/18 04:26:40;;;;;;;;;;;11.10;99.90;;;;;;4908566;29;19930;-73
2023/03/18 04:29:07;;;;;;;;;;;11.10;99.90;;;;;;4918807;29;19934;-73
2023/03/18 04:31:34;;;;;;;;;;;11.20;99.90;;;;;;4918649;29;19934;-73
2023/03/18 04:34:00;;;;;;;;;;;11.20;99.90;;;;;;4900237;29;20538;-72
2023/03/18 04:36:28;;;;;;;;;;;11.20;99.90;;;;;;4917186;29;19931;-74
2023/03/18 04:38:56;;;;;;;;;;;11.20;99.90;;;;;;4916538;29;20017;-73
2023/03/18 04:41:24;;;;;;;;;;;11.20;99.90;;;;;;4894111;29;19931;-73
2023/03/18 04:43:53;;;;;;;;;;;11.20;99.90;;;;;;4916767;29;19931;-73
2023/03/18 04:46:20;;;;;;;;;;;11.20;99.90;;;;;;4892961;29;20929;-74
2023/03/18 04:48:48;;;;;;;;;;;11.40;99.90;;;;;;4934295;28;20444;-72
2023/03/18 04:51:15;;;;;;;;;;;11.20;99.90;;;;;;4911397;29;20103;-73
2023/03/18 04:53:42;;;;;;;;;;;11.20;99.90;;;;;;4904352;29;19969;-73
2023/03/18 04:56:10;;;;;;;;;;;11.20;99.90;;;;;;4909083;29;20030;-73
2023/03/18 04:58:44;;;;;;;;;;;11.20;99.90;;;;;;4920242;29;19931;-72
2023/03/18 05:01:17;;;;;;;;;;;11.30;99.90;;;;;;4920630;29;19931;-72
2023/03/18 05:03:44;;;;;;;;;;;11.30;99.90;;;;;;4922609;29;20396;-74
2023/03/18 05:06:20;;;;;;;;;;;11.30;99.90;;;;;;4910863;29;20029;-73
2023/03/18 05:08:54;;;;;;;;;;;11.30;99.90;;;;;;4922231;29;20034;-73
2023/03/18 05:11:22;;;;;;;;;;;11.30;99.90;;;;;;4913027;29;19931;-73
2023/03/18 05:13:50;;;;;;;;;;;11.30;99.90;;;;;;4922097;29;20025;-71
2023/03/18 05:16:20;;;;;;;;;;;11.40;99.90;;;;;;4918272;29;20349;-73
2023/03/18 05:18:48;;;;;;;;;;;11.40;99.90;;;;;;4897190;29;19935;-73
2023/03/18 05:21:16;;;;;;;;;;;11.40;99.90;;;;;;4920153;29;19986;-74
2023/03/18 05:23:42;;;;;;;;;;;11.40;99.90;;;;;;4921303;29;19930;-75
2023/03/18 05:26:10;;;;;;;;;;;11.40;99.90;;;;;;4919479;29;19960;-76
2023/03/18 05:28:39;;;;;;;;;;;11.40;99.90;;;;;;4911641;29;20917;-74
2023/03/18 05:31:23;;;;;;;;;;;11.40;99.90;;;;;;4919019;29;20572;-74
2023/03/18 05:33:50;;;;;;;;;;;11.20;99.90;;;;;;4935741;29;20416;-74
2023/03/18 05:36:18;;;;;;;;;;;11.50;99.90;;;;;;4935290;29;19938;-75
2023/03/18 05:38:55;;;;;;;;;;;11.50;99.90;;;;;;4914404;29;19934;-75
2023/03/18 05:41:23;;;;;;;;;;;11.50;99.90;;;;;;4903970;29;20061;-75
2023/03/18 05:43:49;;;;;;;;;;;11.50;99.90;;;;;;4906701;29;19969;-74
2023/03/18 05:46:16;;;;;;;;;;;11.50;99.90;;;;;;4903107;29;19930;-74
2023/03/18 05:49:13;;;;;;;;;;;11.50;99.90;;;;;;5441247;23;19909;-73
2023/03/18 05:52:11;;;;;;;;;;;11.50;99.90;;;;;;4918781;29;20021;-74
2023/03/18 05:54:43;;;;;;;;;;;11.50;99.90;;;;;;4906700;29;19988;-73
2023/03/18 05:57:11;;;;;;;;;;;11.50;99.90;;;;;;4920919;29;20044;-73
2023/03/18 05:59:37;;;;;;;;;;;11.50;99.90;;;;;;4899666;29;20405;-73
2023/03/18 06:02:05;;;;;;;;;;;11.50;99.90;;;;;;4925211;29;19935;-73
2023/03/18 06:04:33;;;;;;;;;;;11.50;99.90;;;;;;4914725;29;20025;-73
2023/03/18 06:07:00;;;;;;;;;;;11.50;99.90;;;;;;4914006;29;20002;-73
2023/03/18 06:09:27;;;;;;;;;;;11.60;99.90;;;;;;4907468;29;20373;-73
2023/03/18 06:11:54;;;;;;;;;;;11.60;99.90;;;;;;4914446;29;20373;-73
2023/03/18 06:14:21;;;;;;;;;;;11.60;99.90;;;;;;4915010;29;19923;-73
2023/03/18 06:16:48;;;;;;;;;;;11.70;99.90;;;;;;4912947;29;19999;-75
2023/03/18 06:19:15;;;;;;;;;;;11.70;99.90;;;;;;4931255;29;19953;-74
2023/03/18 06:21:43;;;;;;;;;;;11.70;99.90;;;;;;4926538;29;20401;-74
2023/03/18 06:24:10;;;;;;;;;;;11.70;99.90;;;;;;4928843;29;20397;-73
2023/03/18 06:26:38;;;;;;;;;;;11.70;99.90;;;;;;4912077;29;19966;-74
2023/03/18 06:29:05;;;;;;;;;;;11.80;99.90;;;;;;4914268;29;19923;-74
2023/03/18 06:31:33;;;;;;;;;;;11.80;99.90;;;;;;4911266;29;20289;-73
2023/03/18 06:34:00;;;;;;;;;;;11.90;99.90;;;;;;4930302;29;19922;-73
2023/03/18 06:36:28;;;;;;;;;;;11.90;99.90;;;;;;4929788;29;19959;-73
2023/03/18 06:38:56;;;;;;;;;;;12.00;99.90;;;;;;4933056;29;19937;-73
2023/03/18 06:41:25;;;;;;;;;;;12.00;99.90;;;;;;4912904;29;19937;-74
2023/03/18 06:44:14;;;;;;;;;;;12.10;99.90;;;;;;4914998;29;19930;-74
2023/03/18 06:46:41;;;;;;;;;;;12.10;99.90;;;;;;4911339;29;19927;-74
2023/03/18 06:49:10;;;;;;;;;;;12.10;99.90;;;;;;4913604;29;19932;-73
2023/03/18 06:51:41;;;;;;;;;;;12.20;99.90;;;;;;4909642;29;20254;-73
2023/03/18 06:54:09;;;;;;;;;;;12.20;99.90;;;;;;4924322;29;20005;-73
2023/03/18 06:56:38;;;;;;;;;;;12.20;99.90;;;;;;4912424;29;19923;-73
2023/03/18 06:59:13;;;;;;;;;;;13.70;99.90;;;;;;4911943;29;20512;-73
2023/03/18 07:01:41;;;;;;;;;;;14.40;99.90;;;;;;4933350;29;20324;-73
2023/03/18 07:04:07;;;;;;;;;;;15.70;99.90;;;;;;4915828;29;19937;-73
2023/03/18 07:06:35;;;;;;;;;;;18.40;99.90;;;;;;4914662;29;20323;-74
2023/03/18 07:09:01;;;;;;;;;;;17.90;99.90;;;;;;4931918;29;19922;-74
2023/03/18 07:11:30;;;;;;;;;;;18.50;99.90;;;;;;4913766;29;20065;-74
2023/03/18 07:14:00;;;;;;;;;;;19.20;99.90;;;;;;4930372;29;20038;-75
2023/03/18 07:16:31;;;;;;;;;;;19.90;99.90;;;;;;4937699;29;20483;-74
2023/03/18 07:18:59;;;;;;;;;;;20.50;99.90;;;;;;4914780;29;20459;-75
2023/03/18 07:21:26;;;;;;;;;;;21.30;99.90;;;;;;4912103;29;20353;-75
2023/03/18 07:23:54;;;;;;;;;;;21.80;99.90;;;;;;4911853;29;19938;-75
2023/03/18 07:26:20;;;;;;;;;;;22.50;99.90;;;;;;4925166;29;20295;-74
2023/03/18 07:28:48;;;;;;;;;;;23.10;99.90;;;;;;4915460;29;19942;-76
2023/03/18 07:31:15;;;;;;;;;;;23.50;99.90;;;;;;4910270;29;20289;-75
2023/03/18 07:33:42;;;;;;;;;;;23.80;99.90;;;;;;4934349;29;19930;-75
2023/03/18 07:36:09;;;;;;;;;;;23.90;99.90;;;;;;4915173;29;19939;-75
2023/03/18 07:38:36;;;;;;;;;;;23.90;99.90;;;;;;4930334;29;19927;-75
2023/03/18 07:41:02;;;;;;;;;;;23.80;99.90;;;;;;4926917;29;19923;-74
2023/03/18 07:43:29;;;;;;;;;;;23.70;99.90;;;;;;4926024;29;19937;-75
2023/03/18 07:45:58;;;;;;;;;;;23.00;99.90;;;;;;4931921;29;20153;-75
2023/03/18 07:48:25;;;;;;;;;;;22.10;99.90;;;;;;4930245;29;19948;-74
2023/03/18 07:50:52;;;;;;;;;;;21.30;99.90;;;;;;4930303;29;19933;-75
2023/03/18 07:53:18;;;;;;;;;;;20.80;99.90;;;;;;4930503;29;19923;-74
2023/03/18 07:55:46;;;;;;;;;;;20.50;99.90;;;;;;4931736;29;20396;-74
2023/03/18 07:58:14;;;;;;;;;;;19.90;99.90;;;;;;4930199;29;19923;-74
2023/03/18 08:00:41;;;;;;;;;;;19.90;99.90;;;;;;4931377;29;19992;-75
2023/03/18 08:03:09;;;;;;;;;;;19.70;99.90;;;;;;4927039;29;19927;-74
2023/03/18 08:05:36;;;;;;;;;;;19.60;99.90;;;;;;4928846;29;19927;-73
2023/03/18 08:08:03;;;;;;;;;;;19.70;99.90;;;;;;4927170;29;19922;-74
2023/03/18 08:10:30;;;;;;;;;;;19.70;99.90;;;;;;4928730;29;19969;-74
2023/03/18 08:12:56;;;;;;;;;;;20.10;99.90;;;;;;4930031;29;19926;-74
2023/03/18 08:15:24;;;;;;;;;;;20.40;99.90;;;;;;4927947;29;19931;-74
2023/03/18 08:17:51;;;;;;;;;;;20.80;99.90;;;;;;4931469;29;19929;-75
2023/03/18 08:20:20;;;;;;;;;;;21.00;99.90;;;;;;4911948;29;20402;-75
2023/03/18 08:22:47;;;;;;;;;;;21.20;99.90;;;;;;4929822;29;19933;-76
2023/03/18 08:25:13;;;;;;;;;;;21.20;99.90;;;;;;4907628;29;19949;-75
2023/03/18 08:27:40;;;;;;;;;;;21.20;99.90;;;;;;4930774;29;19933;-75
2023/03/18 08:30:08;;;;;;;;;;;21.30;99.90;;;;;;4930294;29;20340;-76
2023/03/18 08:32:35;;;;;;;;;;;21.50;99.90;;;;;;4932696;29;19931;-75
2023/03/18 08:35:01;;;;;;;;;;;21.80;99.90;;;;;;4933097;29;20377;-76
2023/03/18 08:37:30;;;;;;;;;;;22.20;99.90;;;;;;4913888;29;20038;-76
2023/03/18 08:39:57;;;;;;;;;;;22.30;99.90;;;;;;4914177;29;20523;-76
2023/03/18 08:42:24;;;;;;;;;;;22.20;99.90;;;;;;4928514;29;19929;-76
2023/03/18 08:44:50;;;;;;;;;;;22.10;99.90;;;;;;4931814;29;19930;-76
2023/03/18 08:47:17;;;;;;;;;;;21.90;99.90;;;;;;4930843;29;19922;-76
2023/03/18 08:49:44;;;;;;;;;;;22.00;99.90;;;;;;4912416;29;19938;-75
2023/03/18 08:52:11;;;;;;;;;;;22.00;99.90;;;;;;4936143;29;20013;-75
2023/03/18 08:54:39;;;;;;;;;;;21.80;99.90;;;;;;4930426;29;19926;-75
2023/03/18 08:57:05;;;;;;;;;;;21.70;99.90;;;;;;4933089;29;19937;-76
2023/03/18 08:59:32;;;;;;;;;;;21.40;99.90;;;;;;4929638;29;19926;-75
2023/03/18 09:01:59;;;;;;;;;;;21.50;99.90;;;;;;4932162;29;20380;-75
2023/03/18 09:04:26;;;;;;;;;;;21.70;99.90;;;;;;4932020;29;19931;-75
2023/03/18 09:06:52;;;;;;;;;;;21.60;99.90;;;;;;4930561;29;19930;-75
2023/03/18 09:09:19;;;;;;;;;;;21.20;99.90;;;;;;4936592;29;20430;-75
2023/03/18 09:11:47;;;;;;;;;;;21.00;99.90;;;;;;4934211;29;19930;-75
2023/03/18 09:14:14;;;;;;;;;;;20.80;99.90;;;;;;4932541;29;20294;-76
2023/03/18 09:16:41;;;;;;;;;;;20.70;99.90;;;;;;4932345;29;19931;-76
2023/03/18 09:19:07;;;;;;;;;;;20.70;99.90;;;;;;4930728;29;20360;-74
2023/03/18 09:21:34;;;;;;;;;;;20.90;99.90;;;;;;4939671;29;20021;-75
2023/03/18 09:24:01;;;;;;;;;;;21.20;99.90;;;;;;4925515;29;19970;-75
2023/03/18 09:26:28;;;;;;;;;;;21.20;99.90;;;;;;4932737;29;19926;-76
2023/03/18 09:28:56;;;;;;;;;;;20.70;99.90;;;;;;4932155;29;19922;-76
2023/03/18 09:31:23;;;;;;;;;;;20.20;99.90;;;;;;4913006;29;19923;-75
2023/03/18 09:33:50;;;;;;;;;;;19.70;99.90;;;;;;4935100;29;19930;-75
2023/03/18 09:36:18;;;;;;;;;;;19.30;99.90;;;;;;4935001;29;19927;-76
2023/03/18 09:38:44;;;;;;;;;;;18.90;99.90;;;;;;4931696;29;19922;-76
2023/03/18 09:41:18;;;;;;;;;;;18.60;99.90;;;;;;4910671;29;19926;-75
2023/03/18 09:43:59;;;;;;;;;;;18.40;99.90;;;;;;4928149;29;19929;-76
2023/03/18 09:46:31;;;;;;;;;;;18.30;99.90;;;;;;4932367;29;19937;-76
2023/03/18 09:49:14;;;;;;;;;;;18.20;99.90;;;;;;4931651;29;20015;-76
2023/03/18 09:51:48;;;;;;;;;;;18.10;99.90;;;;;;4923625;29;19958;-76
2023/03/18 09:54:19;;;;;;;;;;;17.90;99.90;;;;;;4923533;29;19958;-76
2023/03/18 09:56:45;;;;;;;;;;;17.90;99.90;;;;;;4910163;29;19927;-74
2023/03/18 09:59:20;;;;;;;;;;;17.80;99.90;;;;;;4929094;29;20316;-75
2023/03/18 10:01:49;;;;;;;;;;;17.90;99.90;;;;;;4928826;29;19959;-75
2023/03/18 10:04:20;;;;;;;;;;;18.10;99.90;;;;;;4930975;29;20013;-74
2023/03/18 10:06:48;;;;;;;;;;;18.00;99.90;;;;;;4934401;29;19927;-75
2023/03/18 10:09:17;;;;;;;;;;;18.10;99.90;;;;;;4931567;29;20389;-76
2023/03/18 10:11:45;;;;;;;;;;;18.20;99.90;;;;;;4931569;29;19933;-74
2023/03/18 10:14:28;;;;;;;;;;;18.20;99.90;;;;;;4928945;29;19927;-74
2023/03/18 10:17:00;;;;;;;;;;;18.20;99.90;;;;;;4921145;29;19923;-74
2023/03/18 10:19:28;;;;;;;;;;;18.20;99.90;;;;;;5452089;23;19926;-75
2023/03/18 10:22:01;;;;;;;;;;;17.80;99.90;;;;;;4970306;28;19944;-75
2023/03/18 10:24:32;;;;;;;;;;;18.20;99.90;;;;;;4971160;28;19953;-74
2023/03/18 10:27:04;;;;;;;;;;;18.20;99.90;;;;;;4970177;28;19930;-74
2023/03/18 10:29:39;;;;;;;;;;;19.10;99.90;;;;;;4970816;28;19933;-73
2023/03/18 10:32:08;;;;;;;;;;;18.20;99.90;;;;;;4966635;28;20396;-74
2023/03/18 10:37:18;;;;;;;;;;;18.30;99.90;;;;;;5057436;23;19953;-82
2023/03/18 10:39:48;;;;;;;;;;;18.60;99.90;;;;;;4941105;29;20416;-82
2023/03/18 10:42:23;;;;;;;;;;;18.60;99.90;;;;;;4960226;28;20370;-82
2023/03/18 10:44:51;;;;;;;;;;;18.70;99.90;;;;;;4943521;29;19914;-82
2023/03/18 10:47:19;;;;;;;;;;;18.70;99.90;;;;;;4944686;29;19977;-82
2023/03/18 10:49:49;;;;;;;;;;;18.80;99.90;;;;;;4942915;29;19997;-81
2023/03/18 10:52:20;;;;;;;;;;;18.90;99.90;;;;;;4942543;29;19926;-83
2023/03/18 10:54:51;;;;;;;;;;;19.00;99.90;;;;;;4940392;28;19910;-82
2023/03/18 10:57:21;;;;;;;;;;;19.10;99.90;;;;;;4944947;29;19927;-82
2023/03/18 10:59:49;;;;;;;;;;;19.10;99.90;;;;;;4950783;28;19926;-82
2023/03/18 11:02:20;;;;;;;;;;;19.20;99.90;;;;;;4949277;29;19923;-82
2023/03/18 11:04:48;;;;;;;;;;;19.20;99.90;;;;;;4946104;29;19926;-82
2023/03/18 11:07:18;;;;;;;;;;;19.20;99.90;;;;;;4946027;28;19968;-83
2023/03/18 11:09:46;;;;;;;;;;;19.10;99.90;;;;;;4952258;28;19933;-84
2023/03/18 11:12:15;;;;;;;;;;;19.10;99.90;;;;;;4952249;29;19933;-83
2023/03/18 11:14:47;;;;;;;;;;;19.40;99.90;;;;;;4944496;28;19946;-83
2023/03/18 11:17:20;;;;;;;;;;;19.40;99.90;;;;;;4948088;29;19972;-84
2023/03/18 11:19:48;;;;;;;;;;;19.60;99.90;;;;;;4957051;28;20071;-83
2023/03/18 11:22:18;;;;;;;;;;;19.80;99.90;;;;;;4949164;28;19926;-84
2023/03/18 11:24:45;;;;;;;;;;;20.10;99.90;;;;;;4941737;29;19926;-83
2023/03/18 11:27:24;;;;;;;;;;;20.10;99.90;;;;;;4942878;28;20008;-83
2023/03/18 11:29:54;;;;;;;;;;;20.10;99.90;;;;;;4941637;29;19953;-83
2023/03/18 11:32:25;;;;;;;;;;;20.30;99.90;;;;;;4941053;29;19969;-83
2023/03/18 11:34:54;;;;;;;;;;;20.50;99.90;;;;;;4960343;29;19930;-82
2023/03/18 11:37:22;;;;;;;;;;;20.60;99.90;;;;;;4958756;29;20392;-83
2023/03/18 11:39:49;;;;;;;;;;;20.70;99.90;;;;;;4941057;29;19954;-83
2023/03/18 11:42:18;;;;;;;;;;;20.80;99.90;;;;;;4961215;29;19922;-82
2023/03/18 11:44:48;;;;;;;;;;;21.10;99.90;;;;;;4955399;28;19928;-83
2023/03/18 11:47:21;;;;;;;;;;;21.10;99.90;;;;;;4940039;29;19926;-83
2023/03/18 11:49:51;;;;;;;;;;;21.10;99.90;;;;;;4942969;29;19922;-83
2023/03/18 11:52:32;;;;;;;;;;;20.90;99.90;;;;;;4943796;28;19988;-83
2023/03/18 11:55:09;;;;;;;;;;;20.50;99.90;;;;;;4965110;28;20526;-83
2023/03/18 11:57:40;;;;;;;;;;;20.40;99.90;;;;;;4958517;29;19926;-83
2023/03/18 12:00:16;;;;;;;;;;;20.60;99.90;;;;;;4940346;29;20370;-83
2023/03/18 12:02:52;;;;;;;;;;;20.90;99.90;;;;;;4948141;29;19982;-83
2023/03/18 12:05:35;;;;;;;;;;;21.60;99.90;;;;;;4947405;28;20025;-83
2023/03/18 12:08:06;;;;;;;;;;;22.00;99.90;;;;;;4948189;29;19973;-83
2023/03/18 12:10:36;;;;;;;;;;;22.00;99.90;;;;;;4948691;29;19922;-83
2023/03/18 12:13:20;;;;;;;;;;;22.10;99.90;;;;;;4949420;29;20171;-84
2023/03/18 12:15:51;;;;;;;;;;;21.60;99.90;;;;;;4946887;29;19922;-84
2023/03/18 12:18:37;;;;;;;;;;;21.60;99.90;;;;;;4938331;29;20005;-84
2023/03/18 12:21:15;;;;;;;;;;;21.30;99.90;;;;;;4954652;28;19969;-84
2023/03/18 12:23:53;;;;;;;;;;;21.00;99.90;;;;;;4959898;29;19994;-84
2023/03/18 12:26:26;;;;;;;;;;;20.80;99.90;;;;;;4945626;29;19922;-83
2023/03/18 12:29:02;;;;;;;;;;;20.90;99.90;;;;;;4931880;29;20022;-83
2023/03/18 12:31:38;;;;;;;;;;;20.90;99.90;;;;;;4948306;29;20013;-83
2023/03/18 12:34:13;;;;;;;;;;;21.20;99.90;;;;;;4966947;28;20341;-84
2023/03/18 12:36:49;;;;;;;;;;;21.30;99.90;;;;;;4948534;29;19934;-84
2023/03/18 12:39:44;;;;;;;;;;;21.40;99.90;;;;;;4952504;29;19926;-84
2023/03/18 12:42:12;;;;;;;;;;;21.40;99.90;;;;;;4939931;29;19929;-83
2023/03/18 12:44:57;;;;;;;;;;;21.40;99.90;;;;;;4964878;28;19937;-83
2023/03/18 12:47:27;;;;;;;;;;;21.40;99.90;;;;;;4947828;29;19945;-83
2023/03/18 12:49:57;;;;;;;;;;;21.50;99.90;;;;;;4949367;29;19998;-83
2023/03/18 12:52:29;;;;;;;;;;;21.50;99.90;;;;;;4969109;29;20004;-83
2023/03/18 12:55:00;;;;;;;;;;;21.50;99.90;;;;;;4952765;29;19934;-83
2023/03/18 12:57:34;;;;;;;;;;;21.40;99.90;;;;;;4960791;28;19996;-84
2023/03/18 13:00:05;;;;;;;;;;;21.20;99.90;;;;;;4957934;29;19977;-83
2023/03/18 13:02:38;;;;;;;;;;;21.80;99.90;;;;;;4948587;29;19922;-83
2023/03/18 13:05:17;;;;;;;;;;;21.00;99.90;;;;;;4967634;28;20366;-83
2023/03/18 13:07:47;;;;;;;;;;;20.90;99.90;;;;;;4962501;29;19946;-84
2023/03/18 13:10:19;;;;;;;;;;;20.70;99.90;;;;;;4949871;29;19946;-83
2023/03/18 13:12:47;;;;;;;;;;;20.50;99.90;;;;;;4967916;28;20111;-83
2023/03/18 13:15:17;;;;;;;;;;;20.30;99.90;;;;;;4965331;28;19922;-83
2023/03/18 13:17:46;;;;;;;;;;;20.30;99.90;;;;;;4955584;28;19922;-82
2023/03/18 13:20:20;;;;;;;;;;;20.00;99.90;;;;;;4953662;28;19922;-82
2023/03/18 13:23:04;;;;;;;;;;;19.90;99.90;;;;;;4960020;29;19949;-82
2023/03/18 13:25:39;;;;;;;;;;;19.60;99.90;;;;;;4949787;29;19926;-83
2023/03/18 13:28:14;;;;;;;;;;;19.60;99.90;;;;;;4948707;29;19923;-82
2023/03/18 13:30:55;;;;;;;;;;;19.50;99.90;;;;;;4950626;29;19929;-82
2023/03/18 13:33:32;;;;;;;;;;;19.20;99.90;;;;;;4946563;29;19946;-83
2023/03/18 13:36:09;;;;;;;;;;;18.90;99.90;;;;;;4947629;29;19951;-83
2023/03/18 13:38:57;;;;;;;;;;;18.70;99.90;;;;;;4949924;29;19930;-82
2023/03/18 13:41:37;;;;;;;;;;;18.80;99.90;;;;;;4944643;29;19985;-83
2023/03/18 13:44:09;;;;;;;;;;;18.90;99.90;;;;;;4965171;28;19918;-83
2023/03/18 13:46:37;;;;;;;;;;;19.10;99.90;;;;;;4943160;29;19977;-81
2023/03/18 13:49:04;;;;;;;;;;;19.10;99.90;;;;;;4937857;29;19930;-82
2023/03/18 13:51:49;;;;;;;;;;;19.30;99.90;;;;;;4943379;29;19922;-80
2023/03/18 13:54:19;;;;;;;;;;;19.20;99.90;;;;;;4942096;28;19952;-80
2023/03/18 13:56:49;;;;;;;;;;;19.20;99.90;;;;;;4941540;29;19938;-80
2023/03/18 13:59:35;;;;;;;;;;;19.00;99.90;;;;;;4958991;29;20713;-80
2023/03/18 14:02:17;;;;;;;;;;;18.90;99.90;;;;;;4959503;29;21021;-79
2023/03/18 14:04:48;;;;;;;;;;;18.20;99.90;;;;;;4940041;29;19947;-79
2023/03/18 14:07:17;;;;;;;;;;;18.20;99.90;;;;;;4941348;29;19973;-79
2023/03/18 14:09:50;;;;;;;;;;;17.90;99.90;;;;;;4941407;29;20326;-79
2023/03/18 14:12:20;;;;;;;;;;;17.60;99.90;;;;;;4939261;29;19938;-80
2023/03/18 14:14:55;;;;;;;;;;;17.30;99.90;;;;;;4946324;29;20002;-77
2023/03/18 14:17:25;;;;;;;;;;;17.30;99.90;;;;;;4936037;29;19926;-77
2023/03/18 14:19:53;;;;;;;;;;;17.20;99.90;;;;;;4934383;29;19930;-77
2023/03/18 14:22:22;;;;;;;;;;;17.40;99.90;;;;;;4937055;29;19926;-76
2023/03/18 14:25:04;;;;;;;;;;;17.80;99.90;;;;;;4937233;29;20031;-76
2023/03/18 14:27:44;;;;;;;;;;;17.90;99.90;;;;;;4934666;29;20454;-77
2023/03/18 14:30:30;;;;;;;;;;;18.20;99.90;;;;;;4935935;29;20278;-77
2023/03/18 14:32:59;;;;;;;;;;;21.20;99.90;;;;;;4941339;29;19934;-77
2023/03/18 14:35:27;;;;;;;;;;;19.60;99.90;;;;;;4935639;29;19945;-77